Time;durP1;ratioP1;P1;durP2;ratioP2;P2;SDS_P1;SDS_P2;PMS_P1;PMS_P2;Temp;Humidity;BMP_temperature;BMP_pressure;BME280_temperature;BME280_humidity;BME280_pressure;Samples;Min_cycle;Max_cycle;Signal;HPM_P1;HPM_P2
2021/11/02 00:02:21;;;;;;;0.50;0.38;;;;;;;9.38;100.00;60892.56;4865970;28;20099;-89
2021/11/02 00:05:01;;;;;;;0.80;0.40;;;;;;;-145.06;100.00;60892.56;4863564;28;20037;-89
2021/11/02 00:07:40;;;;;;;0.20;0.20;;;;;;;-145.06;100.00;60892.56;4867564;28;20123;-89
2021/11/02 00:10:20;;;;;;;0.95;0.50;;;;;;;-145.06;100.00;60892.56;4884774;28;20128;-89
2021/11/02 00:12:59;;;;;;;0.93;0.40;;;;;;;-145.06;100.00;60892.56;4864310;28;20037;-89
2021/11/02 00:15:40;;;;;;;0.38;0.30;;;;;;;-145.06;100.00;60892.56;4867427;28;20029;-89
2021/11/02 00:18:22;;;;;;;0.68;0.30;;;;;;;-145.06;100.00;60892.56;4868763;28;20109;-89
2021/11/02 00:21:02;;;;;;;0.35;0.30;;;;;;;-145.06;100.00;60892.56;4863401;28;20025;-88
2021/11/02 00:23:41;;;;;;;0.40;0.40;;;;;;;-145.06;100.00;60892.56;4863210;28;20139;-89
2021/11/02 00:26:20;;;;;;;0.30;0.30;;;;;;;-145.06;100.00;60892.56;4862370;28;20033;-89
2021/11/02 00:28:59;;;;;;;0.30;0.30;;;;;;;-145.06;100.00;60892.56;4860365;28;20532;-88
2021/11/02 00:31:38;;;;;;;0.68;0.40;;;;;;;-145.06;100.00;60892.56;4867372;28;20025;-89
2021/11/02 00:34:17;;;;;;;0.25;0.25;;;;;;;-145.06;100.00;60892.56;4870025;28;20016;-90
2021/11/02 00:36:56;;;;;;;0.30;0.30;;;;;;;-145.06;100.00;60892.56;4869631;28;20562;-89
2021/11/02 00:39:35;;;;;;;0.50;0.32;;;;;;;-145.06;100.00;60892.56;4871812;28;20255;-90
2021/11/02 00:42:14;;;;;;;0.45;0.30;;;;;;;-145.06;100.00;60892.56;4866304;28;20108;-90
2021/11/02 00:44:56;;;;;;;0.20;0.20;;;;;;;-145.06;100.00;60892.56;4874814;28;20103;-89
2021/11/02 00:47:36;;;;;;;0.20;0.20;;;;;;;-145.06;100.00;60892.56;4872682;28;20029;-89
2021/11/02 00:50:15;;;;;;;0.25;0.25;;;;;;;-145.06;100.00;60892.56;4871895;28;20025;-89
2021/11/02 00:52:55;;;;;;;0.38;0.20;;;;;;;-145.06;100.00;60892.56;4869295;28;20494;-89
2021/11/02 00:55:35;;;;;;;;;;;;;;;-145.06;100.00;60892.56;4862177;28;20355;-89
2021/11/02 00:58:14;;;;;;;;;;;;;;;-145.06;100.00;60892.56;4873593;28;20401;-89
2021/11/02 01:00:53;;;;;;;0.50;0.30;;;;;;;-145.06;100.00;60892.56;4874024;28;19904;-89
2021/11/02 01:03:33;;;;;;;0.30;0.20;;;;;;;8.85;100.00;60892.56;4871736;28;20033;-88
2021/11/02 01:06:12;;;;;;;0.30;0.20;;;;;;;-145.06;100.00;60892.56;4870458;28;20060;-89
2021/11/02 01:08:51;;;;;;;0.70;0.20;;;;;;;9.06;100.00;60892.56;4865817;28;20029;-89
2021/11/02 01:11:30;;;;;;;0.30;0.30;;;;;;;-145.06;100.00;60892.56;4867396;28;20533;-90
2021/11/02 01:14:09;;;;;;;1.17;0.28;;;;;;;-145.06;100.00;60892.56;4872966;28;20044;-89
2021/11/02 01:16:48;;;;;;;0.20;0.20;;;;;;;-145.06;100.00;60892.56;4872572;28;20033;-89
2021/11/02 01:19:26;;;;;;;0.40;0.40;;;;;;;-145.06;100.00;60892.56;4863650;28;20021;-89
2021/11/02 01:22:06;;;;;;;0.40;0.40;;;;;;;-145.06;100.00;60892.56;4868513;28;20025;-88
2021/11/02 01:24:45;;;;;;;0.45;0.30;;;;;;;-145.06;100.00;60892.56;4854964;28;20025;-88
2021/11/02 01:27:25;;;;;;;0.30;0.30;;;;;;;-145.06;100.00;60892.56;4865465;28;20056;-89
2021/11/02 01:30:05;;;;;;;0.20;0.20;;;;;;;-145.06;100.00;60892.56;4874033;28;20065;-89
2021/11/02 01:32:44;;;;;;;0.40;0.40;;;;;;;-145.06;100.00;60892.56;4863107;28;20356;-90
2021/11/02 01:35:24;;;;;;;0.20;0.20;;;;;;;-145.06;100.00;60892.56;4877144;28;20041;-88
2021/11/02 01:38:05;;;;;;;0.32;0.28;;;;;;;-145.06;100.00;60892.56;4877776;28;20028;-89
2021/11/02 01:40:45;;;;;;;0.25;0.25;;;;;;;-145.06;100.00;60892.56;4871009;28;20348;-87
2021/11/02 01:43:24;;;;;;;0.32;0.20;;;;;;;-145.06;100.00;60892.56;4872212;28;20363;-89
2021/11/02 01:46:03;;;;;;;0.30;0.30;;;;;;;-145.06;100.00;60892.56;4875893;28;20028;-89
2021/11/02 01:48:42;;;;;;;0.20;0.20;;;;;;;-145.06;100.00;60892.56;4871107;28;20466;-89
2021/11/02 01:51:23;;;;;;;0.20;0.20;;;;;;;-145.06;100.00;60892.56;4877347;28;20025;-90
2021/11/02 01:54:04;;;;;;;0.28;0.28;;;;;;;-145.06;100.00;60892.56;4877000;28;20033;-89
2021/11/02 01:56:51;;;;;;;0.40;0.40;;;;;;;-145.06;100.00;60892.56;4867963;28;20032;-90
2021/11/02 01:59:33;;;;;;;0.30;0.30;;;;;;;7.98;100.00;60892.56;4864210;28;20450;-89
2021/11/02 02:02:29;;;;;;;0.63;0.35;;;;;;;7.94;100.00;60892.56;4864665;28;20485;-88
2021/11/02 02:05:16;;;;;;;0.43;0.40;;;;;;;7.91;100.00;60892.56;4872834;28;20112;-88
2021/11/02 02:08:19;;;;;;;0.30;0.30;;;;;;;7.88;100.00;60892.56;4870435;28;20041;-89
2021/11/02 02:11:21;;;;;;;0.30;0.30;;;;;;;7.92;100.00;60892.56;4874534;28;20025;-89
2021/11/02 02:14:19;;;;;;;0.32;0.32;;;;;;;7.84;100.00;60892.56;4865703;28;20037;-90
2021/11/02 02:17:01;;;;;;;0.30;0.30;;;;;;;-145.06;100.00;60892.56;4874007;28;20041;-89
2021/11/02 02:19:49;;;;;;;0.85;0.30;;;;;;;-145.06;100.00;60892.56;4875752;28;20025;-89
2021/11/02 02:23:03;;;;;;;0.30;0.30;;;;;;;-145.06;100.00;60892.56;4882204;28;20475;-90
2021/11/02 02:25:54;;;;;;;0.20;0.20;;;;;;;-145.06;100.00;60892.56;4876770;28;20359;-89
2021/11/02 02:28:38;;;;;;;0.25;0.25;;;;;;;-145.06;100.00;60892.56;4866872;28;20033;-89
2021/11/02 02:31:19;;;;;;;0.40;0.30;;;;;;;-145.06;100.00;60892.56;4876731;28;20029;-89
2021/11/02 02:33:59;;;;;;;0.52;0.30;;;;;;;-145.06;100.00;60892.56;4871616;28;20412;-89
2021/11/02 02:36:40;;;;;;;0.25;0.25;;;;;;;-145.06;100.00;60892.56;4871638;28;20455;-90
2021/11/02 02:39:21;;;;;;;0.30;0.30;;;;;;;-145.06;100.00;60892.56;4865313;28;20028;-89
2021/11/02 02:42:01;;;;;;;0.50;0.30;;;;;;;-145.06;100.00;60892.56;4876004;28;20033;-88
2021/11/02 02:44:41;;;;;;;0.30;0.30;;;;;;;-145.06;100.00;60892.56;4876022;28;20120;-89
2021/11/02 02:47:22;;;;;;;0.40;0.30;;;;;;;-145.06;100.00;60892.56;4876148;28;20128;-90
2021/11/02 02:50:06;;;;;;;0.60;0.50;;;;;;;-145.06;100.00;60892.56;4876666;28;20112;-88
2021/11/02 02:52:46;;;;;;;0.55;0.38;;;;;;;-145.06;100.00;60892.56;4872605;28;20033;-89
2021/11/02 02:55:28;;;;;;;0.30;0.30;;;;;;;-145.06;100.00;60892.56;4890160;28;20076;-88
2021/11/02 02:58:09;;;;;;;0.63;0.40;;;;;;;-145.06;100.00;60892.56;4872042;28;20517;-89
2021/11/02 03:00:48;;;;;;;0.68;0.30;;;;;;;-145.06;100.00;60892.56;4859069;28;20029;-89
2021/11/02 03:03:28;;;;;;;0.30;0.30;;;;;;;-145.06;100.00;60892.56;4867864;28;20021;-88
2021/11/02 03:06:11;;;;;;;0.30;0.30;;;;;;;-145.06;100.00;60892.56;4873480;28;20347;-89
2021/11/02 03:08:52;;;;;;;0.28;0.28;;;;;;;-145.06;100.00;60892.56;4870834;28;20661;-88
2021/11/02 03:11:33;;;;;;;0.40;0.30;;;;;;;-145.06;100.00;60892.56;4868086;28;20061;-89
2021/11/02 03:14:20;;;;;;;0.28;0.28;;;;;;;-145.06;100.00;60892.56;4869215;28;20474;-89
2021/11/02 03:17:06;;;;;;;0.50;0.32;;;;;;;-145.06;100.00;60892.56;4873444;28;20025;-89
2021/11/02 03:55:10;;;;;;;0.30;0.30;;;;;;;-145.06;100.00;60892.56;4883045;28;20243;-89
2021/11/02 03:57:55;;;;;;;;;;;;;;;-145.06;100.00;60892.56;4860635;28;20041;-88
2021/11/02 04:01:05;;;;;;;0.55;0.40;;;;;;;-145.06;100.00;60892.56;4860478;28;19909;-89
2021/11/02 04:24:56;;;;;;;0.40;0.40;;;;;;;-145.06;100.00;60892.56;4869094;28;20028;-88
2021/11/02 04:33:51;;;;;;;0.60;0.45;;;;;;;-145.06;100.00;60892.56;4873752;28;20045;-88
2021/11/02 05:52:38;;;;;;;1.02;0.50;;;;;;;-145.06;100.00;60892.56;4871537;28;20026;-89
2021/11/02 05:55:38;;;;;;;0.85;0.50;;;;;;;-145.06;100.00;60892.56;4873585;28;20021;-88
2021/11/02 06:04:42;;;;;;;1.40;0.43;;;;;;;7.89;100.00;60892.56;4874377;28;20052;-89
2021/11/02 06:28:27;;;;;;;1.80;0.60;;;;;;;-145.06;100.00;60892.56;4861074;28;20040;-87
2021/11/02 06:31:12;;;;;;;1.38;0.60;;;;;;;-145.06;100.00;60892.56;4868142;28;20458;-87
2021/11/02 06:51:16;;;;;;;0.30;0.30;;;;;;;-145.06;100.00;60892.56;4868162;28;20347;-89
2021/11/02 07:15:23;;;;;;;0.50;0.40;;;;;;;-145.06;100.00;60892.56;4870304;28;20025;-87
2021/11/02 07:18:06;;;;;;;0.32;0.32;;;;;;;-145.06;100.00;60892.56;4876548;28;20028;-89
2021/11/02 07:21:03;;;;;;;0.65;0.43;;;;;;;-145.06;100.00;60892.56;4868218;28;20022;-88
2021/11/02 07:24:07;;;;;;;0.40;0.40;;;;;;;8.65;100.00;60892.56;4866944;28;20041;-87
2021/11/02 07:27:07;;;;;;;0.63;0.38;;;;;;;-145.06;100.00;60892.56;4878612;28;20064;-87
2021/11/02 08:48:35;;;;;;;0.32;0.32;;;;;;;-145.06;100.00;60892.56;4862342;28;20068;-88
2021/11/02 08:51:17;;;;;;;0.40;0.40;;;;;;;-145.06;100.00;60892.56;4867952;28;20025;-90
2021/11/02 08:53:57;;;;;;;0.20;0.20;;;;;;;-145.06;100.00;60892.56;4868222;28;20041;-89
2021/11/02 08:56:36;;;;;;;1.00;0.40;;;;;;;-145.06;100.00;60892.56;4867235;28;20482;-90
2021/11/02 08:59:15;;;;;;;0.40;0.40;;;;;;;-145.06;100.00;60892.56;4873297;28;20072;-89
2021/11/02 09:01:57;;;;;;;0.63;0.43;;;;;;;-145.06;100.00;60892.56;4874336;28;20498;-90
2021/11/02 09:04:44;;;;;;;0.75;0.50;;;;;;;-145.06;100.00;60892.56;4887396;28;20021;-91
2021/11/02 09:07:27;;;;;;;0.47;0.30;;;;;;;-145.06;100.00;60892.56;4879491;28;20443;-90
2021/11/02 09:10:27;;;;;;;0.52;0.40;;;;;;;-145.06;100.00;60892.56;4864762;28;20025;-89
2021/11/02 09:13:09;;;;;;;1.13;0.40;;;;;;;-145.06;100.00;60892.56;4871076;28;20021;-90
2021/11/02 09:15:51;;;;;;;0.90;0.50;;;;;;;-145.06;100.00;60892.56;4874191;28;20024;-89
2021/11/02 09:18:30;;;;;;;0.35;0.30;;;;;;;-145.06;100.00;60892.56;4873234;28;20344;-89
2021/11/02 09:21:09;;;;;;;0.40;0.35;;;;;;;-145.06;100.00;60892.56;4869265;28;20578;-89
2021/11/02 09:23:51;;;;;;;;;;;;;;;-145.06;100.00;60892.56;4876330;28;20036;-89
2021/11/02 09:26:31;;;;;;;0.43;0.30;;;;;;;-145.06;100.00;60892.56;4873896;28;19996;-89
2021/11/02 09:29:11;;;;;;;0.50;0.40;;;;;;;-145.06;100.00;60892.56;4871301;28;20029;-90
2021/11/02 09:31:54;;;;;;;;;;;;;;;-145.06;100.00;60892.56;4873906;28;20033;-89
2021/11/02 09:34:34;;;;;;;0.95;0.40;;;;;;;-145.06;100.00;60892.56;4873466;28;19999;-89
2021/11/02 09:37:19;;;;;;;0.60;0.43;;;;;;;-145.06;100.00;60892.56;4865998;28;20029;-90
2021/11/02 09:40:07;;;;;;;0.77;0.38;;;;;;;-145.06;100.00;60892.56;4871315;28;20112;-90
2021/11/02 09:43:14;;;;;;;0.82;0.30;;;;;;;-145.06;100.00;60892.56;4863557;28;20033;-88
2021/11/02 09:46:03;;;;;;;0.30;0.30;;;;;;;-145.06;100.00;60892.56;4866284;28;20021;-88
2021/11/02 09:49:06;;;;;;;0.30;0.30;;;;;;;-145.06;100.00;60892.56;4882993;28;20024;-89
2021/11/02 09:52:16;;;;;;;0.50;0.43;;;;;;;-145.06;100.00;60892.56;4864692;28;20033;-89
2021/11/02 09:55:14;;;;;;;0.45;0.30;;;;;;;-145.06;100.00;60892.56;4883103;28;20028;-89
2021/11/02 09:58:13;;;;;;;0.68;0.30;;;;;;;-145.06;100.00;60892.56;4872687;28;20025;-90
2021/11/02 10:01:17;;;;;;;0.40;0.40;;;;;;;-145.06;100.00;60892.56;4873683;28;20029;-89
2021/11/02 10:04:30;;;;;;;0.30;0.30;;;;;;;-145.06;100.00;60892.56;4868469;28;20068;-89
2021/11/02 10:07:23;;;;;;;0.70;0.40;;;;;;;-145.06;100.00;60892.56;4872980;28;20025;-89
2021/11/02 10:10:11;;;;;;;0.95;0.30;;;;;;;-145.06;100.00;60892.56;4875373;28;20021;-90
2021/11/02 10:13:04;;;;;;;0.20;0.20;;;;;;;-145.06;100.00;60892.56;4867839;28;20028;-90
2021/11/02 10:15:55;;;;;;;0.30;0.30;;;;;;;-145.06;100.00;60892.56;4872939;28;20026;-89
2021/11/02 10:18:43;;;;;;;0.20;0.20;;;;;;;-145.06;100.00;60892.56;4869931;28;20025;-89
2021/11/02 10:21:38;;;;;;;0.40;0.22;;;;;;;-145.06;100.00;60892.56;4882092;28;20343;-90
2021/11/02 10:24:59;;;;;;;0.22;0.20;;;;;;;-145.06;100.00;60892.56;4875988;28;20024;-89
2021/11/02 10:27:57;;;;;;;0.20;0.20;;;;;;;-145.06;100.00;60892.56;4882068;28;20024;-89
2021/11/02 10:30:57;;;;;;;0.20;0.20;;;;;;;-145.06;100.00;60892.56;4868528;28;20442;-90
2021/11/02 10:33:46;;;;;;;0.30;0.30;;;;;;;-145.06;100.00;60892.56;4868607;28;20395;-88
2021/11/02 10:36:50;;;;;;;0.20;0.20;;;;;;;-145.06;100.00;60892.56;4877521;28;20463;-90
2021/11/02 10:39:40;;;;;;;0.22;0.20;;;;;;;-145.06;100.00;60892.56;4868812;28;20025;-89
2021/11/02 10:42:22;;;;;;;0.20;0.20;;;;;;;-145.06;100.00;60892.56;4879059;28;20024;-89
2021/11/02 10:45:01;;;;;;;0.20;0.20;;;;;;;-145.06;100.00;60892.56;4877258;28;20032;-90
2021/11/02 10:48:03;;;;;;;0.17;0.17;;;;;;;-145.06;100.00;60892.56;4868657;28;20029;-89
2021/11/02 10:50:48;;;;;;;0.20;0.20;;;;;;;-145.06;100.00;60892.56;4870946;28;20017;-89
2021/11/02 10:53:41;;;;;;;0.20;0.20;;;;;;;-145.06;100.00;60892.56;4863306;28;20037;-91
2021/11/02 10:56:31;;;;;;;0.20;0.20;;;;;;;-145.06;100.00;60892.56;4870687;28;20037;-91
2021/11/02 10:59:15;;;;;;;0.20;0.20;;;;;;;-145.06;100.00;60892.56;4870720;28;20037;-89
2021/11/02 11:01:55;;;;;;;0.30;0.20;;;;;;;-145.06;100.00;60892.56;4875263;28;20028;-90
2021/11/02 11:04:35;;;;;;;0.35;0.20;;;;;;;-145.06;100.00;60892.56;4865585;28;20025;-90
2021/11/02 11:07:15;;;;;;;0.25;0.20;;;;;;;-145.06;100.00;60892.56;4865165;28;20648;-90
2021/11/02 11:09:55;;;;;;;0.20;0.20;;;;;;;-145.06;100.00;60892.56;4874209;28;20013;-90
2021/11/02 11:12:51;;;;;;;0.20;0.20;;;;;;;-145.06;100.00;60892.56;4872083;28;20028;-91
2021/11/02 11:15:31;;;;;;;0.43;0.20;;;;;;;-145.06;100.00;60892.56;4870172;28;20024;-90
2021/11/02 11:18:10;;;;;;;0.30;0.28;;;;;;;-145.06;100.00;60892.56;4874158;28;20029;-91
2021/11/02 11:20:49;;;;;;;1.67;0.30;;;;;;;-145.06;100.00;60892.56;4869707;28;20025;-89
2021/11/02 11:23:35;;;;;;;0.83;0.30;;;;;;;-145.06;100.00;60892.56;4853915;28;20041;-89
2021/11/02 11:26:16;;;;;;;0.20;0.20;;;;;;;-145.06;100.00;60892.56;4860732;28;20268;-91
2021/11/02 11:28:58;;;;;;;0.25;0.25;;;;;;;-145.06;100.00;60892.56;4863327;28;20037;-90
2021/11/02 11:31:38;;;;;;;0.20;0.20;;;;;;;-145.06;100.00;60892.56;4867413;28;20037;-90
2021/11/02 11:34:18;;;;;;;0.30;0.20;;;;;;;-145.06;100.00;60892.56;4868907;28;20107;-89
2021/11/02 11:36:59;;;;;;;0.20;0.20;;;;;;;-145.06;100.00;60892.56;4860448;28;20037;-89
2021/11/02 11:39:42;;;;;;;0.20;0.20;;;;;;;-145.06;100.00;60892.56;4861148;28;20033;-89
2021/11/02 11:42:24;;;;;;;0.50;0.30;;;;;;;-145.06;100.00;60892.56;4865749;28;20061;-91
2021/11/02 11:45:19;;;;;;;0.10;0.10;;;;;;;-145.06;100.00;60892.56;4866413;28;20741;-90
2021/11/02 11:48:20;;;;;;;0.20;0.20;;;;;;;-145.06;100.00;60892.56;4880184;28;20060;-90
2021/11/02 11:51:02;;;;;;;0.30;0.30;;;;;;;-145.06;100.00;60892.56;4865937;28;20494;-89
2021/11/02 11:53:42;;;;;;;0.10;0.10;;;;;;;-145.06;100.00;60892.56;4863906;28;20040;-90
2021/11/02 11:56:21;;;;;;;0.20;0.20;;;;;;;-145.06;100.00;60892.56;4863315;28;20140;-91
2021/11/02 11:59:02;;;;;;;0.70;0.20;;;;;;;-145.06;100.00;60892.56;4869251;28;20038;-89
2021/11/02 12:02:04;;;;;;;0.20;0.20;;;;;;;-145.06;100.00;60892.56;4864712;28;20029;-90
2021/11/02 12:04:49;;;;;;;0.20;0.20;;;;;;;-145.06;100.00;60892.56;4861274;28;20356;-90
2021/11/02 12:07:54;;;;;;;0.22;0.22;;;;;;;-145.06;100.00;60892.56;4860952;28;20032;-89
2021/11/02 12:10:39;;;;;;;0.20;0.20;;;;;;;-145.06;100.00;60892.56;4863302;28;20029;-89
2021/11/02 12:13:19;;;;;;;0.20;0.20;;;;;;;-145.06;100.00;60892.56;4859408;28;20025;-90
2021/11/02 12:18:56;;;;;;;0.20;0.20;;;;;;;-145.06;100.00;60892.56;4874123;28;20060;-87
2021/11/02 12:21:37;;;;;;;0.10;0.10;;;;;;;-145.06;100.00;60892.56;4863049;28;20052;-89
2021/11/02 12:24:16;;;;;;;0.20;0.20;;;;;;;-145.06;100.00;60892.56;4879441;28;20033;-91
2021/11/02 12:26:56;;;;;;;0.30;0.30;;;;;;;-145.06;100.00;60892.56;4860499;28;20033;-90
2021/11/02 12:29:37;;;;;;;0.20;0.20;;;;;;;-145.06;100.00;60892.56;4861954;28;20033;-88
2021/11/02 12:32:19;;;;;;;0.20;0.20;;;;;;;-145.06;100.00;60892.56;4858466;28;20033;-90
2021/11/02 12:35:07;;;;;;;0.22;0.22;;;;;;;-145.06;100.00;60892.56;4859117;28;20033;-89
2021/11/02 12:38:01;;;;;;;0.20;0.20;;;;;;;-145.06;100.00;60892.56;4866208;28;20464;-87
2021/11/02 12:40:42;;;;;;;0.20;0.20;;;;;;;-145.06;100.00;60892.56;4861223;28;20388;-85
2021/11/02 12:43:23;;;;;;;0.40;0.40;;;;;;;-145.06;100.00;60892.56;4859558;28;20029;-85
2021/11/02 12:46:03;;;;;;;0.28;0.28;;;;;;;-145.06;100.00;60892.56;4859592;28;20041;-85
2021/11/02 12:48:43;;;;;;;0.35;0.30;;;;;;;-145.06;100.00;60892.56;4866154;28;20028;-86
2021/11/02 12:51:24;;;;;;;0.30;0.20;;;;;;;-145.06;100.00;60892.56;4859848;28;20056;-86
2021/11/02 12:54:08;;;;;;;0.30;0.30;;;;;;;-145.06;100.00;60892.56;4862332;28;20033;-86
2021/11/02 12:57:10;;;;;;;0.30;0.30;;;;;;;-145.06;100.00;60892.56;4864787;28;20020;-86
2021/11/02 13:00:00;;;;;;;0.40;0.30;;;;;;;-145.06;100.00;60892.56;4860781;28;20032;-85
2021/11/02 13:02:42;;;;;;;0.55;0.20;;;;;;;-145.06;100.00;60892.56;4859595;28;20041;-87
2021/11/02 13:05:23;;;;;;;0.20;0.20;;;;;;;-145.06;100.00;60892.56;4861101;28;20091;-87
2021/11/02 13:08:08;;;;;;;0.20;0.20;;;;;;;-145.06;100.00;60892.56;4859760;28;20744;-87
2021/11/02 13:10:50;;;;;;;0.22;0.20;;;;;;;-145.06;100.00;60892.56;4862885;28;20030;-86
2021/11/02 13:13:31;;;;;;;0.10;0.10;;;;;;;-145.06;100.00;60892.56;4862315;28;20025;-88
2021/11/02 13:16:10;;;;;;;0.30;0.20;;;;;;;-145.06;100.00;60892.56;4865075;28;20025;-86
2021/11/02 13:18:49;;;;;;;0.30;0.30;;;;;;;-145.06;100.00;60892.56;4861640;28;20033;-86
2021/11/02 13:21:34;;;;;;;0.20;0.20;;;;;;;-145.06;100.00;60892.56;4857472;28;20033;-85
2021/11/02 13:24:17;;;;;;;0.20;0.20;;;;;;;-145.06;100.00;60892.56;4863459;28;20132;-86
2021/11/02 13:26:57;;;;;;;0.25;0.25;;;;;;;-145.06;100.00;60892.56;4857481;28;20037;-86
2021/11/02 13:29:36;;;;;;;;;;;;;;;-145.06;100.00;60892.56;4860675;28;20029;-86
2021/11/02 13:32:15;;;;;;;1.40;0.30;;;;;;;-145.06;100.00;60892.56;4858512;28;19913;-86
2021/11/02 13:34:54;;;;;;;0.20;0.20;;;;;;;-145.06;100.00;60892.56;4868343;28;20045;-86
2021/11/02 13:37:33;;;;;;;0.17;0.17;;;;;;;-145.06;100.00;60892.56;4857737;28;20279;-86
2021/11/02 13:40:12;;;;;;;0.30;0.20;;;;;;;-145.06;100.00;60892.56;4866655;28;20037;-86
2021/11/02 13:42:52;;;;;;;0.20;0.20;;;;;;;-145.06;100.00;60892.56;4863456;28;20613;-88
2021/11/02 13:45:31;;;;;;;0.40;0.40;;;;;;;-145.06;100.00;60892.56;4863714;28;20148;-88
2021/11/02 13:48:10;;;;;;;0.38;0.30;;;;;;;-145.06;100.00;60892.56;4864856;28;20049;-87
2021/11/02 13:50:49;;;;;;;0.25;0.25;;;;;;;-145.06;100.00;60892.56;4865822;28;20033;-86
2021/11/02 13:53:33;;;;;;;0.20;0.20;;;;;;;-145.06;100.00;60892.56;4864677;28;20107;-86
2021/11/02 13:56:19;;;;;;;0.20;0.20;;;;;;;-145.06;100.00;60892.56;4861858;28;20268;-85
2021/11/02 13:58:59;;;;;;;0.30;0.30;;;;;;;-145.06;100.00;60892.56;4867227;28;20025;-87
2021/11/02 14:01:45;;;;;;;0.25;0.25;;;;;;;-145.06;100.00;60892.56;4870929;28;20021;-86
2021/11/02 14:04:32;;;;;;;0.25;0.25;;;;;;;-145.06;100.00;60892.56;4868015;28;20041;-86
2021/11/02 14:07:18;;;;;;;0.20;0.20;;;;;;;-145.06;100.00;60892.56;4864533;28;20040;-87
2021/11/02 14:10:08;;;;;;;0.22;0.22;;;;;;;-145.06;100.00;60892.56;4868480;28;20025;-87
2021/11/02 14:12:53;;;;;;;0.20;0.20;;;;;;;-145.06;100.00;60892.56;4867302;28;20530;-86
2021/11/02 14:15:39;;;;;;;0.20;0.20;;;;;;;-145.06;100.00;60892.56;4864231;28;20033;-86
2021/11/02 14:18:20;;;;;;;0.30;0.30;;;;;;;-145.06;100.00;60892.56;4862586;28;20025;-86
2021/11/02 14:20:59;;;;;;;0.20;0.20;;;;;;;-145.06;100.00;60892.56;4864446;28;20036;-86
2021/11/02 14:23:46;;;;;;;0.30;0.30;;;;;;;-145.06;100.00;60892.56;4868466;28;20025;-87
2021/11/02 14:26:37;;;;;;;0.20;0.20;;;;;;;-145.06;100.00;60892.56;4866738;28;20036;-86
2021/11/02 14:29:18;;;;;;;0.10;0.10;;;;;;;-145.06;100.00;60892.56;4867168;28;20420;-86
2021/11/02 14:32:01;;;;;;;0.20;0.20;;;;;;;-145.06;100.00;60892.56;4866476;28;20423;-87
2021/11/02 14:34:40;;;;;;;0.55;0.25;;;;;;;-145.06;100.00;60892.56;4863763;28;20064;-87
2021/11/02 14:37:21;;;;;;;0.20;0.20;;;;;;;-145.06;100.00;60892.56;4869349;28;20032;-87
2021/11/02 14:40:03;;;;;;;0.25;0.25;;;;;;;-145.06;100.00;60892.56;4868244;28;20120;-86
2021/11/02 14:42:45;;;;;;;0.68;0.20;;;;;;;-145.06;100.00;60892.56;4856364;28;20025;-87
2021/11/02 14:45:44;;;;;;;0.28;0.28;;;;;;;-145.06;100.00;60892.56;4863509;28;20029;-87
2021/11/02 14:48:30;;;;;;;0.60;0.32;;;;;;;-145.06;100.00;60892.56;4862543;28;20112;-88
2021/11/02 14:51:19;;;;;;;0.40;0.40;;;;;;;-145.06;100.00;60892.56;4861795;28;20364;-89
2021/11/02 14:54:20;;;;;;;0.40;0.38;;;;;;;-145.06;100.00;60892.56;4877305;28;20021;-88
2021/11/02 14:57:18;;;;;;;0.40;0.40;;;;;;;-145.06;100.00;60892.56;4866504;28;20036;-88
2021/11/02 14:59:58;;;;;;;0.47;0.45;;;;;;;-145.06;100.00;60892.56;4865961;28;20024;-88
2021/11/02 15:02:39;;;;;;;0.30;0.30;;;;;;;-145.06;100.00;60892.56;4860091;28;20049;-88
2021/11/02 15:05:22;;;;;;;0.35;0.35;;;;;;;-145.06;100.00;60892.56;4864522;28;20028;-88
2021/11/02 15:08:05;;;;;;;0.30;0.30;;;;;;;-145.06;100.00;60892.56;4866789;28;20028;-88
2021/11/02 15:10:45;;;;;;;0.50;0.40;;;;;;;-145.06;100.00;60892.56;4859041;28;20029;-88
2021/11/02 15:13:24;;;;;;;0.43;0.40;;;;;;;-145.06;100.00;60892.56;4856495;28;20021;-88
2021/11/02 15:16:03;;;;;;;0.67;0.40;;;;;;;-145.06;100.00;60892.56;4864444;28;20033;-88
2021/11/02 15:18:45;;;;;;;0.38;0.38;;;;;;;-145.06;100.00;60892.56;4866262;28;20033;-87
2021/11/02 15:21:30;;;;;;;0.40;0.40;;;;;;;-145.06;100.00;60892.56;4864943;28;20059;-87
2021/11/02 15:24:23;;;;;;;0.43;0.35;;;;;;;-145.06;100.00;60892.56;4864833;28;20025;-88
2021/11/02 15:27:15;;;;;;;0.30;0.30;;;;;;;-145.06;100.00;60892.56;4859841;28;20029;-87
2021/11/02 15:30:05;;;;;;;0.35;0.30;;;;;;;-145.06;100.00;60892.56;4862018;28;20613;-87
2021/11/02 15:32:46;;;;;;;2.00;0.50;;;;;;;-145.06;100.00;60892.56;4859722;28;20037;-87
2021/11/02 15:35:26;;;;;;;0.40;0.40;;;;;;;-145.06;100.00;60892.56;4866378;28;20021;-87
2021/11/02 15:38:05;;;;;;;0.45;0.40;;;;;;;-145.06;100.00;60892.56;4859676;28;20057;-87
2021/11/02 15:40:44;;;;;;;0.40;0.40;;;;;;;-145.06;100.00;60892.56;4867819;28;20056;-86
2021/11/02 15:43:23;;;;;;;0.93;0.43;;;;;;;-145.06;100.00;60892.56;4858016;28;20033;-86
2021/11/02 15:46:02;;;;;;;0.93;0.60;;;;;;;-145.06;100.00;60892.56;4862020;28;20037;-88
2021/11/02 15:48:42;;;;;;;0.90;0.47;;;;;;;-145.06;100.00;60892.56;4847839;28;20033;-86
2021/11/02 15:51:21;;;;;;;0.70;0.40;;;;;;;-145.06;100.00;60892.56;4850996;28;20128;-87
2021/11/02 15:54:06;;;;;;;0.40;0.40;;;;;;;-145.06;100.00;60892.56;4860391;28;20036;-87
2021/11/02 15:56:45;;;;;;;0.40;0.40;;;;;;;-145.06;100.00;60892.56;4858409;28;20275;-87
2021/11/02 15:59:26;;;;;;;0.68;0.43;;;;;;;-145.06;100.00;60892.56;4864130;28;20069;-87
2021/11/02 16:02:05;;;;;;;0.60;0.47;;;;;;;-145.06;100.00;60892.56;4861181;28;20044;-86
2021/11/02 16:04:44;;;;;;;0.57;0.47;;;;;;;-145.06;100.00;60892.56;4863886;28;20037;-87
2021/11/02 16:07:30;;;;;;;1.60;0.67;;;;;;;-145.06;100.00;60892.56;4861642;28;20119;-87
2021/11/02 16:10:09;;;;;;;0.70;0.50;;;;;;;-145.06;100.00;60892.56;4863874;28;20372;-88
2021/11/02 16:12:48;;;;;;;0.57;0.50;;;;;;;-145.06;100.00;60892.56;4860531;28;20276;-87
2021/11/02 16:15:28;;;;;;;0.97;0.60;;;;;;;-145.06;100.00;60892.56;4865930;28;20287;-88
2021/11/02 16:18:26;;;;;;;0.82;0.50;;;;;;;-145.06;100.00;60892.56;4858370;28;20037;-87
2021/11/02 16:21:07;;;;;;;0.60;0.50;;;;;;;-145.06;100.00;60892.56;4863227;28;20026;-87
2021/11/02 16:23:49;;;;;;;0.63;0.40;;;;;;;-145.06;100.00;60892.56;4862476;28;20041;-87
2021/11/02 16:26:29;;;;;;;0.80;0.50;;;;;;;-145.06;100.00;60892.56;4860655;28;20072;-88
2021/11/02 16:29:16;;;;;;;0.40;0.40;;;;;;;-145.06;100.00;60892.56;4862166;28;20041;-88
2021/11/02 16:31:56;;;;;;;1.13;0.50;;;;;;;-145.06;100.00;60892.56;4863811;28;20084;-87
2021/11/02 16:34:43;;;;;;;0.80;0.50;;;;;;;-145.06;100.00;60892.56;4852928;28;20033;-87
2021/11/02 16:37:40;;;;;;;0.50;0.40;;;;;;;-145.06;100.00;60892.56;4872060;28;20659;-87
2021/11/02 16:40:21;;;;;;;0.50;0.45;;;;;;;-145.06;100.00;60892.56;4854828;28;20045;-89
2021/11/02 16:43:02;;;;;;;0.50;0.40;;;;;;;-145.06;100.00;60892.56;4867669;28;20041;-87
2021/11/02 16:45:48;;;;;;;0.40;0.40;;;;;;;-145.06;100.00;60892.56;4851587;28;20042;-88
2021/11/02 16:48:40;;;;;;;0.40;0.40;;;;;;;-145.06;100.00;60892.56;4854444;28;20041;-88
2021/11/02 16:51:20;;;;;;;0.40;0.40;;;;;;;-145.06;100.00;60892.56;4854850;28;20057;-88
2021/11/02 16:54:10;;;;;;;0.60;0.47;;;;;;;-145.06;100.00;60892.56;4851255;28;20403;-88
2021/11/02 16:56:54;;;;;;;;;;;;;;;-145.06;100.00;60892.56;4853594;28;20080;-87
2021/11/02 16:59:40;;;;;;;0.30;0.30;;;;;;;-145.06;100.00;60892.56;4862584;28;19917;-88
2021/11/02 17:02:24;;;;;;;0.50;0.30;;;;;;;-145.06;100.00;60892.56;4860273;28;20124;-88
2021/11/02 17:05:12;;;;;;;0.47;0.40;;;;;;;-145.06;100.00;60892.56;4854501;28;20045;-88
2021/11/02 17:08:08;;;;;;;0.40;0.40;;;;;;;-145.06;100.00;60892.56;4860600;28;20033;-87
2021/11/02 17:10:51;;;;;;;0.40;0.40;;;;;;;-145.06;100.00;60892.56;4847444;28;20054;-88
2021/11/02 17:13:35;;;;;;;0.30;0.30;;;;;;;-145.06;100.00;60892.56;4859814;28;20029;-88
2021/11/02 17:16:20;;;;;;;0.47;0.40;;;;;;;-145.06;100.00;60892.56;4860403;28;20041;-87
2021/11/02 17:19:05;;;;;;;0.30;0.30;;;;;;;-145.06;100.00;60892.56;4859592;28;20061;-89